sensor_id;sensor_type;location;lat;lon;timestamp;P1;durP1;ratioP1;P2;durP2;ratioP2
26574;SDS011;67165;50.256;10.978;2023-04-01T00:00:28;3.28;;;1.20;;
26574;SDS011;67165;50.256;10.978;2023-04-01T00:02:53;5.63;;;1.65;;
26574;SDS011;67165;50.256;10.978;2023-04-01T00:05:19;6.13;;;1.50;;
26574;SDS011;67165;50.256;10.978;2023-04-01T00:07:45;9.00;;;1.65;;
26574;SDS011;67165;50.256;10.978;2023-04-01T00:10:11;5.53;;;1.30;;
26574;SDS011;67165;50.256;10.978;2023-04-01T00:12:38;6.35;;;1.60;;
26574;SDS011;67165;50.256;10.978;2023-04-01T00:15:05;9.07;;;1.80;;
26574;SDS011;67165;50.256;10.978;2023-04-01T00:17:32;6.05;;;1.50;;
26574;SDS011;67165;50.256;10.978;2023-04-01T00:19:59;4.57;;;1.60;;
26574;SDS011;67165;50.256;10.978;2023-04-01T00:22:24;4.93;;;1.50;;
26574;SDS011;67165;50.256;10.978;2023-04-01T00:24:51;6.88;;;1.40;;
26574;SDS011;67165;50.256;10.978;2023-04-01T00:27:17;5.53;;;1.50;;
26574;SDS011;67165;50.256;10.978;2023-04-01T00:29:43;4.63;;;1.60;;
26574;SDS011;67165;50.256;10.978;2023-04-01T00:32:09;11.15;;;1.70;;
26574;SDS011;67165;50.256;10.978;2023-04-01T00:34:35;7.70;;;1.55;;
26574;SDS011;67165;50.256;10.978;2023-04-01T00:37:01;5.90;;;1.58;;
26574;SDS011;67165;50.256;10.978;2023-04-01T00:39:30;7.68;;;1.70;;
26574;SDS011;67165;50.256;10.978;2023-04-01T00:41:57;6.57;;;1.30;;
26574;SDS011;67165;50.256;10.978;2023-04-01T00:44:24;4.47;;;1.48;;
26574;SDS011;67165;50.256;10.978;2023-04-01T00:46:51;6.50;;;1.58;;
26574;SDS011;67165;50.256;10.978;2023-04-01T00:49:20;8.73;;;1.90;;
26574;SDS011;67165;50.256;10.978;2023-04-01T00:51:50;10.15;;;1.90;;
26574;SDS011;67165;50.256;10.978;2023-04-01T00:54:18;5.75;;;1.55;;
26574;SDS011;67165;50.256;10.978;2023-04-01T00:57:05;7.97;;;1.60;;
26574;SDS011;67165;50.256;10.978;2023-04-01T00:59:39;6.38;;;1.67;;
26574;SDS011;67165;50.256;10.978;2023-04-01T01:02:08;5.57;;;1.52;;
26574;SDS011;67165;50.256;10.978;2023-04-01T01:04:36;6.10;;;1.50;;
26574;SDS011;67165;50.256;10.978;2023-04-01T01:07:12;5.75;;;1.80;;
26574;SDS011;67165;50.256;10.978;2023-04-01T01:10:02;6.70;;;1.38;;
26574;SDS011;67165;50.256;10.978;2023-04-01T01:12:38;9.50;;;1.90;;
26574;SDS011;67165;50.256;10.978;2023-04-01T01:15:16;4.70;;;1.30;;
26574;SDS011;67165;50.256;10.978;2023-04-01T01:31:12;6.55;;;1.73;;
26574;SDS011;67165;50.256;10.978;2023-04-01T01:36:46;8.85;;;1.50;;
26574;SDS011;67165;50.256;10.978;2023-04-01T01:39:18;7.30;;;1.80;;
26574;SDS011;67165;50.256;10.978;2023-04-01T01:41:45;7.88;;;1.67;;
26574;SDS011;67165;50.256;10.978;2023-04-01T01:44:14;11.20;;;1.92;;
26574;SDS011;67165;50.256;10.978;2023-04-01T01:46:41;5.95;;;1.67;;
26574;SDS011;67165;50.256;10.978;2023-04-01T01:49:09;7.00;;;1.80;;
26574;SDS011;67165;50.256;10.978;2023-04-01T01:51:36;9.40;;;1.70;;
26574;SDS011;67165;50.256;10.978;2023-04-01T01:54:02;7.20;;;1.58;;
26574;SDS011;67165;50.256;10.978;2023-04-01T01:56:28;11.73;;;1.70;;
26574;SDS011;67165;50.256;10.978;2023-04-01T01:58:56;8.20;;;1.60;;
26574;SDS011;67165;50.256;10.978;2023-04-01T02:01:28;5.35;;;1.45;;
26574;SDS011;67165;50.256;10.978;2023-04-01T02:03:56;4.40;;;1.40;;
26574;SDS011;67165;50.256;10.978;2023-04-01T02:06:23;8.45;;;1.60;;
26574;SDS011;67165;50.256;10.978;2023-04-01T02:09:04;6.07;;;1.40;;
26574;SDS011;67165;50.256;10.978;2023-04-01T02:14:41;5.40;;;1.58;;
26574;SDS011;67165;50.256;10.978;2023-04-01T02:17:21;6.85;;;1.50;;
26574;SDS011;67165;50.256;10.978;2023-04-01T02:19:52;8.30;;;1.45;;
26574;SDS011;67165;50.256;10.978;2023-04-01T02:22:26;5.03;;;1.42;;
26574;SDS011;67165;50.256;10.978;2023-04-01T02:24:57;6.28;;;1.40;;
26574;SDS011;67165;50.256;10.978;2023-04-01T02:27:26;5.20;;;1.35;;
26574;SDS011;67165;50.256;10.978;2023-04-01T02:29:51;4.78;;;1.30;;
26574;SDS011;67165;50.256;10.978;2023-04-01T02:32:18;6.43;;;1.58;;
26574;SDS011;67165;50.256;10.978;2023-04-01T02:34:45;5.78;;;1.45;;
26574;SDS011;67165;50.256;10.978;2023-04-01T02:37:12;6.35;;;1.40;;
26574;SDS011;67165;50.256;10.978;2023-04-01T02:39:39;7.80;;;1.80;;
26574;SDS011;67165;50.256;10.978;2023-04-01T02:42:05;11.50;;;1.60;;
26574;SDS011;67165;50.256;10.978;2023-04-01T02:44:30;7.60;;;1.50;;
26574;SDS011;67165;50.256;10.978;2023-04-01T02:46:56;6.07;;;1.30;;
26574;SDS011;67165;50.256;10.978;2023-04-01T02:49:22;8.15;;;1.40;;
26574;SDS011;67165;50.256;10.978;2023-04-01T02:51:48;5.88;;;1.40;;
26574;SDS011;67165;50.256;10.978;2023-04-01T02:54:13;3.60;;;1.30;;
26574;SDS011;67165;50.256;10.978;2023-04-01T02:56:39;6.45;;;1.40;;
26574;SDS011;67165;50.256;10.978;2023-04-01T02:59:05;8.82;;;1.70;;
26574;SDS011;67165;50.256;10.978;2023-04-01T03:01:31;6.32;;;1.40;;
26574;SDS011;67165;50.256;10.978;2023-04-01T03:03:56;4.85;;;1.50;;
26574;SDS011;67165;50.256;10.978;2023-04-01T03:06:22;7.82;;;1.58;;
26574;SDS011;67165;50.256;10.978;2023-04-01T03:08:48;6.38;;;1.30;;
26574;SDS011;67165;50.256;10.978;2023-04-01T03:11:13;6.30;;;1.40;;
26574;SDS011;67165;50.256;10.978;2023-04-01T03:13:39;6.80;;;1.70;;
26574;SDS011;67165;50.256;10.978;2023-04-01T03:16:05;6.13;;;1.30;;
26574;SDS011;67165;50.256;10.978;2023-04-01T03:18:31;3.08;;;1.17;;
26574;SDS011;67165;50.256;10.978;2023-04-01T03:20:57;7.68;;;1.35;;
26574;SDS011;67165;50.256;10.978;2023-04-01T03:23:22;3.38;;;1.10;;
26574;SDS011;67165;50.256;10.978;2023-04-01T03:25:49;7.40;;;1.55;;
26574;SDS011;67165;50.256;10.978;2023-04-01T03:28:15;5.20;;;1.30;;
26574;SDS011;67165;50.256;10.978;2023-04-01T03:30:41;6.63;;;1.77;;
26574;SDS011;67165;50.256;10.978;2023-04-01T03:33:06;4.65;;;1.38;;
26574;SDS011;67165;50.256;10.978;2023-04-01T03:35:32;5.68;;;1.40;;
26574;SDS011;67165;50.256;10.978;2023-04-01T03:38:00;7.63;;;1.38;;
26574;SDS011;67165;50.256;10.978;2023-04-01T03:40:26;8.07;;;1.40;;
26574;SDS011;67165;50.256;10.978;2023-04-01T03:42:52;6.20;;;1.60;;
26574;SDS011;67165;50.256;10.978;2023-04-01T03:45:18;8.20;;;1.60;;
26574;SDS011;67165;50.256;10.978;2023-04-01T03:47:43;7.10;;;1.48;;
26574;SDS011;67165;50.256;10.978;2023-04-01T03:50:09;8.23;;;1.35;;
26574;SDS011;67165;50.256;10.978;2023-04-01T03:52:36;7.80;;;1.58;;
26574;SDS011;67165;50.256;10.978;2023-04-01T03:55:01;8.80;;;1.88;;
26574;SDS011;67165;50.256;10.978;2023-04-01T03:57:27;4.78;;;1.42;;
26574;SDS011;67165;50.256;10.978;2023-04-01T03:59:55;6.10;;;1.60;;
26574;SDS011;67165;50.256;10.978;2023-04-01T04:02:21;6.32;;;1.38;;
26574;SDS011;67165;50.256;10.978;2023-04-01T04:04:46;7.30;;;1.55;;
26574;SDS011;67165;50.256;10.978;2023-04-01T04:07:12;6.70;;;1.70;;
26574;SDS011;67165;50.256;10.978;2023-04-01T04:09:38;4.70;;;1.40;;
26574;SDS011;67165;50.256;10.978;2023-04-01T04:12:04;5.65;;;1.35;;
26574;SDS011;67165;50.256;10.978;2023-04-01T04:14:31;5.50;;;1.73;;
26574;SDS011;67165;50.256;10.978;2023-04-01T04:16:57;5.57;;;1.50;;
26574;SDS011;67165;50.256;10.978;2023-04-01T04:19:23;4.38;;;1.20;;
26574;SDS011;67165;50.256;10.978;2023-04-01T04:21:48;9.43;;;1.80;;
26574;SDS011;67165;50.256;10.978;2023-04-01T04:24:14;6.00;;;1.55;;
26574;SDS011;67165;50.256;10.978;2023-04-01T04:26:40;5.63;;;1.40;;
26574;SDS011;67165;50.256;10.978;2023-04-01T04:29:05;6.57;;;1.73;;
26574;SDS011;67165;50.256;10.978;2023-04-01T04:31:31;6.38;;;1.85;;
26574;SDS011;67165;50.256;10.978;2023-04-01T04:33:58;4.72;;;1.45;;
26574;SDS011;67165;50.256;10.978;2023-04-01T04:36:25;5.53;;;1.20;;
26574;SDS011;67165;50.256;10.978;2023-04-01T04:38:51;7.57;;;1.75;;
26574;SDS011;67165;50.256;10.978;2023-04-01T04:41:17;6.03;;;1.42;;
26574;SDS011;67165;50.256;10.978;2023-04-01T04:43:49;8.10;;;1.77;;
26574;SDS011;67165;50.256;10.978;2023-04-01T04:46:16;6.53;;;1.48;;
26574;SDS011;67165;50.256;10.978;2023-04-01T04:48:41;4.28;;;1.40;;
26574;SDS011;67165;50.256;10.978;2023-04-01T04:51:10;6.63;;;1.85;;
26574;SDS011;67165;50.256;10.978;2023-04-01T04:53:38;6.97;;;2.05;;
26574;SDS011;67165;50.256;10.978;2023-04-01T04:56:04;4.82;;;1.70;;
26574;SDS011;67165;50.256;10.978;2023-04-01T04:58:29;7.88;;;2.10;;
26574;SDS011;67165;50.256;10.978;2023-04-01T05:00:55;8.98;;;2.05;;
26574;SDS011;67165;50.256;10.978;2023-04-01T05:03:21;9.88;;;1.63;;
26574;SDS011;67165;50.256;10.978;2023-04-01T05:05:51;6.15;;;1.70;;
26574;SDS011;67165;50.256;10.978;2023-04-01T05:08:18;9.32;;;2.00;;
26574;SDS011;67165;50.256;10.978;2023-04-01T05:10:44;6.18;;;1.30;;
26574;SDS011;67165;50.256;10.978;2023-04-01T05:13:10;4.47;;;1.40;;
26574;SDS011;67165;50.256;10.978;2023-04-01T05:15:36;6.70;;;1.58;;
26574;SDS011;67165;50.256;10.978;2023-04-01T05:18:02;6.28;;;1.70;;
26574;SDS011;67165;50.256;10.978;2023-04-01T05:20:28;9.60;;;2.03;;
26574;SDS011;67165;50.256;10.978;2023-04-01T05:22:58;6.88;;;1.60;;
26574;SDS011;67165;50.256;10.978;2023-04-01T05:25:24;5.72;;;1.67;;
26574;SDS011;67165;50.256;10.978;2023-04-01T05:27:50;9.23;;;2.00;;
26574;SDS011;67165;50.256;10.978;2023-04-01T05:30:16;7.95;;;1.77;;
26574;SDS011;67165;50.256;10.978;2023-04-01T05:32:42;4.57;;;1.55;;
26574;SDS011;67165;50.256;10.978;2023-04-01T05:35:08;5.03;;;1.48;;
26574;SDS011;67165;50.256;10.978;2023-04-01T05:37:35;6.38;;;1.23;;
26574;SDS011;67165;50.256;10.978;2023-04-01T05:40:01;8.10;;;1.92;;
26574;SDS011;67165;50.256;10.978;2023-04-01T05:42:28;7.68;;;1.70;;
26574;SDS011;67165;50.256;10.978;2023-04-01T05:44:53;5.80;;;1.48;;
26574;SDS011;67165;50.256;10.978;2023-04-01T05:47:20;8.80;;;1.63;;
26574;SDS011;67165;50.256;10.978;2023-04-01T05:49:46;4.65;;;1.35;;
26574;SDS011;67165;50.256;10.978;2023-04-01T05:52:12;5.43;;;1.42;;
26574;SDS011;67165;50.256;10.978;2023-04-01T05:54:37;8.52;;;1.58;;
26574;SDS011;67165;50.256;10.978;2023-04-01T05:57:03;6.60;;;1.60;;
26574;SDS011;67165;50.256;10.978;2023-04-01T05:59:29;4.90;;;1.15;;
26574;SDS011;67165;50.256;10.978;2023-04-01T06:01:56;5.78;;;1.30;;
26574;SDS011;67165;50.256;10.978;2023-04-01T06:04:22;6.00;;;1.20;;
26574;SDS011;67165;50.256;10.978;2023-04-01T06:06:50;8.07;;;1.27;;
26574;SDS011;67165;50.256;10.978;2023-04-01T06:09:18;4.55;;;1.30;;
26574;SDS011;67165;50.256;10.978;2023-04-01T06:14:43;4.78;;;1.48;;
26574;SDS011;67165;50.256;10.978;2023-04-01T06:20:12;6.82;;;1.42;;
26574;SDS011;67165;50.256;10.978;2023-04-01T06:22:50;6.15;;;1.50;;
26574;SDS011;67165;50.256;10.978;2023-04-01T06:25:39;6.82;;;1.63;;
26574;SDS011;67165;50.256;10.978;2023-04-01T06:50:40;6.20;;;1.30;;
26574;SDS011;67165;50.256;10.978;2023-04-01T06:53:35;3.25;;;1.00;;
26574;SDS011;67165;50.256;10.978;2023-04-01T06:56:20;5.65;;;1.13;;
26574;SDS011;67165;50.256;10.978;2023-04-01T06:58:53;6.45;;;1.27;;
26574;SDS011;67165;50.256;10.978;2023-04-01T07:01:28;4.85;;;1.10;;
26574;SDS011;67165;50.256;10.978;2023-04-01T07:04:00;4.72;;;1.23;;
26574;SDS011;67165;50.256;10.978;2023-04-01T07:06:42;6.32;;;1.13;;
26574;SDS011;67165;50.256;10.978;2023-04-01T07:09:17;2.88;;;0.95;;
26574;SDS011;67165;50.256;10.978;2023-04-01T07:11:49;7.13;;;1.20;;
26574;SDS011;67165;50.256;10.978;2023-04-01T07:14:32;2.92;;;1.10;;
26574;SDS011;67165;50.256;10.978;2023-04-01T07:19:46;3.90;;;0.90;;
26574;SDS011;67165;50.256;10.978;2023-04-01T07:22:35;2.00;;;1.00;;
26574;SDS011;67165;50.256;10.978;2023-04-01T07:25:11;2.73;;;1.33;;
26574;SDS011;67165;50.256;10.978;2023-04-01T07:27:37;3.80;;;1.40;;
26574;SDS011;67165;50.256;10.978;2023-04-01T07:30:06;3.30;;;1.25;;
26574;SDS011;67165;50.256;10.978;2023-04-01T07:32:53;3.25;;;1.25;;
26574;SDS011;67165;50.256;10.978;2023-04-01T07:35:37;3.92;;;1.20;;
26574;SDS011;67165;50.256;10.978;2023-04-01T07:49:07;3.85;;;1.08;;
26574;SDS011;67165;50.256;10.978;2023-04-01T08:02:30;3.25;;;1.17;;
26574;SDS011;67165;50.256;10.978;2023-04-01T08:05:29;4.18;;;1.10;;
26574;SDS011;67165;50.256;10.978;2023-04-01T08:10:57;3.60;;;1.20;;
26574;SDS011;67165;50.256;10.978;2023-04-01T08:21:47;5.80;;;1.10;;
26574;SDS011;67165;50.256;10.978;2023-04-01T08:27:18;5.28;;;1.38;;
26574;SDS011;67165;50.256;10.978;2023-04-01T08:29:58;4.18;;;1.27;;
26574;SDS011;67165;50.256;10.978;2023-04-01T08:32:37;3.67;;;1.00;;
26574;SDS011;67165;50.256;10.978;2023-04-01T08:37:50;5.05;;;1.50;;
26574;SDS011;67165;50.256;10.978;2023-04-01T08:43:25;3.60;;;1.10;;
26574;SDS011;67165;50.256;10.978;2023-04-01T08:57:48;5.25;;;1.25;;
26574;SDS011;67165;50.256;10.978;2023-04-01T09:13:34;4.30;;;1.50;;
26574;SDS011;67165;50.256;10.978;2023-04-01T09:18:46;5.60;;;2.55;;
26574;SDS011;67165;50.256;10.978;2023-04-01T09:40:54;4.18;;;1.70;;
26574;SDS011;67165;50.256;10.978;2023-04-01T10:27:52;1.35;;;0.65;;
26574;SDS011;67165;50.256;10.978;2023-04-01T10:49:43;1.20;;;1.00;;
26574;SDS011;67165;50.256;10.978;2023-04-01T10:52:23;0.98;;;0.80;;
26574;SDS011;67165;50.256;10.978;2023-04-01T11:06:03;0.60;;;0.60;;
26574;SDS011;67165;50.256;10.978;2023-04-01T11:25:35;0.68;;;0.65;;
26574;SDS011;67165;50.256;10.978;2023-04-01T11:28:23;2.30;;;0.63;;
26574;SDS011;67165;50.256;10.978;2023-04-01T11:34:26;1.60;;;0.90;;
26574;SDS011;67165;50.256;10.978;2023-04-01T11:50:57;2.13;;;0.80;;
26574;SDS011;67165;50.256;10.978;2023-04-01T11:56:21;1.23;;;0.70;;
26574;SDS011;67165;50.256;10.978;2023-04-01T11:58:58;2.05;;;1.00;;
26574;SDS011;67165;50.256;10.978;2023-04-01T12:12:14;1.35;;;0.80;;
26574;SDS011;67165;50.256;10.978;2023-04-01T12:17:57;2.08;;;1.10;;
26574;SDS011;67165;50.256;10.978;2023-04-01T12:20:49;1.58;;;1.38;;
26574;SDS011;67165;50.256;10.978;2023-04-01T12:23:28;4.07;;;1.15;;
26574;SDS011;67165;50.256;10.978;2023-04-01T12:34:53;2.92;;;1.88;;
26574;SDS011;67165;50.256;10.978;2023-04-01T12:54:18;0.95;;;0.60;;
26574;SDS011;67165;50.256;10.978;2023-04-01T13:12:15;1.38;;;0.70;;
26574;SDS011;67165;50.256;10.978;2023-04-01T13:28:33;0.57;;;0.57;;
26574;SDS011;67165;50.256;10.978;2023-04-01T13:31:09;0.50;;;0.50;;
26574;SDS011;67165;50.256;10.978;2023-04-01T13:36:46;1.42;;;0.65;;
26574;SDS011;67165;50.256;10.978;2023-04-01T13:42:12;0.90;;;0.70;;
26574;SDS011;67165;50.256;10.978;2023-04-01T13:44:56;0.90;;;0.77;;
26574;SDS011;67165;50.256;10.978;2023-04-01T13:53:35;0.88;;;0.70;;
26574;SDS011;67165;50.256;10.978;2023-04-01T13:56:16;4.82;;;3.08;;
26574;SDS011;67165;50.256;10.978;2023-04-01T14:01:40;1.50;;;1.40;;
26574;SDS011;67165;50.256;10.978;2023-04-01T14:04:30;2.13;;;1.88;;
26574;SDS011;67165;50.256;10.978;2023-04-01T14:10:06;5.55;;;3.28;;
26574;SDS011;67165;50.256;10.978;2023-04-01T14:12:48;2.28;;;1.58;;
26574;SDS011;67165;50.256;10.978;2023-04-01T14:21:16;4.05;;;2.28;;
26574;SDS011;67165;50.256;10.978;2023-04-01T14:34:44;1.60;;;1.20;;
26574;SDS011;67165;50.256;10.978;2023-04-01T14:43:09;2.90;;;2.15;;
26574;SDS011;67165;50.256;10.978;2023-04-01T14:53:57;2.47;;;1.30;;
26574;SDS011;67165;50.256;10.978;2023-04-01T14:59:08;6.10;;;4.68;;
26574;SDS011;67165;50.256;10.978;2023-04-01T15:15:26;4.88;;;1.50;;
26574;SDS011;67165;50.256;10.978;2023-04-01T15:18:15;2.75;;;2.00;;
26574;SDS011;67165;50.256;10.978;2023-04-01T15:26:58;1.77;;;1.55;;
26574;SDS011;67165;50.256;10.978;2023-04-01T15:32:17;3.03;;;2.28;;
26574;SDS011;67165;50.256;10.978;2023-04-01T15:34:57;7.13;;;5.05;;
26574;SDS011;67165;50.256;10.978;2023-04-01T15:45:17;1.45;;;1.15;;
26574;SDS011;67165;50.256;10.978;2023-04-01T15:48:11;1.40;;;1.10;;
26574;SDS011;67165;50.256;10.978;2023-04-01T15:56:40;5.93;;;3.72;;
26574;SDS011;67165;50.256;10.978;2023-04-01T15:59:24;5.85;;;4.18;;
26574;SDS011;67165;50.256;10.978;2023-04-01T16:15:39;1.90;;;1.60;;
26574;SDS011;67165;50.256;10.978;2023-04-01T16:21:14;7.78;;;3.55;;
26574;SDS011;67165;50.256;10.978;2023-04-01T16:29:28;2.90;;;1.50;;
26574;SDS011;67165;50.256;10.978;2023-04-01T16:35:17;2.10;;;1.90;;
26574;SDS011;67165;50.256;10.978;2023-04-01T16:37:53;1.70;;;1.60;;
26574;SDS011;67165;50.256;10.978;2023-04-01T16:40:57;1.63;;;1.50;;
26574;SDS011;67165;50.256;10.978;2023-04-01T16:43:52;3.55;;;1.52;;
26574;SDS011;67165;50.256;10.978;2023-04-01T16:46:39;1.45;;;1.30;;
26574;SDS011;67165;50.256;10.978;2023-04-01T17:00:09;1.65;;;1.55;;
26574;SDS011;67165;50.256;10.978;2023-04-01T17:02:45;4.10;;;1.60;;
26574;SDS011;67165;50.256;10.978;2023-04-01T17:05:16;1.75;;;1.65;;
26574;SDS011;67165;50.256;10.978;2023-04-01T17:25:02;2.55;;;2.10;;
26574;SDS011;67165;50.256;10.978;2023-04-01T17:30:24;4.20;;;3.00;;
26574;SDS011;67165;50.256;10.978;2023-04-01T17:35:23;14.30;;;9.00;;
26574;SDS011;67165;50.256;10.978;2023-04-01T17:38:03;10.20;;;6.80;;
26574;SDS011;67165;50.256;10.978;2023-04-01T17:45:55;13.85;;;7.10;;
26574;SDS011;67165;50.256;10.978;2023-04-01T17:50:54;10.20;;;6.82;;
26574;SDS011;67165;50.256;10.978;2023-04-01T17:56:14;12.95;;;8.90;;
26574;SDS011;67165;50.256;10.978;2023-04-01T17:59:20;15.20;;;9.90;;
26574;SDS011;67165;50.256;10.978;2023-04-01T18:02:11;11.77;;;7.80;;
26574;SDS011;67165;50.256;10.978;2023-04-01T18:15:52;3.88;;;2.90;;
26574;SDS011;67165;50.256;10.978;2023-04-01T18:26:43;2.95;;;1.90;;
26574;SDS011;67165;50.256;10.978;2023-04-01T18:37:25;1.77;;;1.60;;
26574;SDS011;67165;50.256;10.978;2023-04-01T18:40:11;3.38;;;2.15;;
26574;SDS011;67165;50.256;10.978;2023-04-01T18:46:01;3.53;;;2.10;;
26574;SDS011;67165;50.256;10.978;2023-04-01T18:48:40;2.85;;;2.20;;
26574;SDS011;67165;50.256;10.978;2023-04-01T18:54:12;3.05;;;2.40;;
26574;SDS011;67165;50.256;10.978;2023-04-01T18:57:15;3.50;;;2.67;;
26574;SDS011;67165;50.256;10.978;2023-04-01T19:07:52;5.43;;;3.70;;
26574;SDS011;67165;50.256;10.978;2023-04-01T19:10:31;3.75;;;3.30;;
26574;SDS011;67165;50.256;10.978;2023-04-01T19:21:20;6.97;;;4.22;;
26574;SDS011;67165;50.256;10.978;2023-04-01T19:27:08;3.85;;;3.17;;
26574;SDS011;67165;50.256;10.978;2023-04-01T19:29:12;3.28;;;2.88;;
26574;SDS011;67165;50.256;10.978;2023-04-01T19:37:59;4.03;;;2.50;;
26574;SDS011;67165;50.256;10.978;2023-04-01T19:40:44;3.63;;;2.35;;
26574;SDS011;67165;50.256;10.978;2023-04-01T19:46:10;3.53;;;2.38;;
26574;SDS011;67165;50.256;10.978;2023-04-01T20:07:42;3.75;;;3.03;;
26574;SDS011;67165;50.256;10.978;2023-04-01T20:16:17;4.60;;;3.08;;
26574;SDS011;67165;50.256;10.978;2023-04-01T20:18:54;3.58;;;2.60;;
26574;SDS011;67165;50.256;10.978;2023-04-01T20:24:01;3.08;;;2.70;;
26574;SDS011;67165;50.256;10.978;2023-04-01T20:26:39;3.47;;;2.85;;
26574;SDS011;67165;50.256;10.978;2023-04-01T20:52:42;3.08;;;2.10;;
26574;SDS011;67165;50.256;10.978;2023-04-01T20:55:30;1.80;;;1.70;;
26574;SDS011;67165;50.256;10.978;2023-04-01T20:58:13;2.05;;;1.70;;
26574;SDS011;67165;50.256;10.978;2023-04-01T21:00:50;4.72;;;1.90;;
26574;SDS011;67165;50.256;10.978;2023-04-01T21:03:27;1.95;;;1.60;;
26574;SDS011;67165;50.256;10.978;2023-04-01T21:09:00;1.48;;;1.20;;
26574;SDS011;67165;50.256;10.978;2023-04-01T21:31:49;1.30;;;1.13;;
26574;SDS011;67165;50.256;10.978;2023-04-01T22:04:57;1.25;;;1.15;;
26574;SDS011;67165;50.256;10.978;2023-04-01T22:10:34;1.88;;;1.20;;
26574;SDS011;67165;50.256;10.978;2023-04-01T22:18:36;4.35;;;1.55;;
26574;SDS011;67165;50.256;10.978;2023-04-01T22:21:20;1.30;;;1.20;;
26574;SDS011;67165;50.256;10.978;2023-04-01T22:24:01;1.52;;;1.42;;
26574;SDS011;67165;50.256;10.978;2023-04-01T22:29:17;1.38;;;1.20;;
26574;SDS011;67165;50.256;10.978;2023-04-01T22:31:55;2.30;;;1.50;;
26574;SDS011;67165;50.256;10.978;2023-04-01T22:37:01;2.78;;;1.40;;
26574;SDS011;67165;50.256;10.978;2023-04-01T22:56:18;1.75;;;1.30;;
26574;SDS011;67165;50.256;10.978;2023-04-01T23:01:40;1.25;;;1.15;;
26574;SDS011;67165;50.256;10.978;2023-04-01T23:04:15;1.58;;;1.27;;
26574;SDS011;67165;50.256;10.978;2023-04-01T23:06:48;2.42;;;1.30;;
26574;SDS011;67165;50.256;10.978;2023-04-01T23:16:47;2.03;;;1.30;;
26574;SDS011;67165;50.256;10.978;2023-04-01T23:19:25;1.88;;;1.30;;
26574;SDS011;67165;50.256;10.978;2023-04-01T23:22:00;3.08;;;1.20;;
26574;SDS011;67165;50.256;10.978;2023-04-01T23:25:00;1.50;;;1.40;;
26574;SDS011;67165;50.256;10.978;2023-04-01T23:27:47;1.70;;;1.50;;
26574;SDS011;67165;50.256;10.978;2023-04-01T23:30:45;2.30;;;1.58;;
26574;SDS011;67165;50.256;10.978;2023-04-01T23:38:16;2.00;;;1.80;;
26574;SDS011;67165;50.256;10.978;2023-04-01T23:40:42;2.03;;;1.60;;
26574;SDS011;67165;50.256;10.978;2023-04-01T23:45:57;3.00;;;1.65;;
26574;SDS011;67165;50.256;10.978;2023-04-01T23:48:44;3.63;;;1.80;;
26574;SDS011;67165;50.256;10.978;2023-04-01T23:51:27;2.15;;;1.63;;
26574;SDS011;67165;50.256;10.978;2023-04-01T23:54:03;1.95;;;1.73;;
26574;SDS011;67165;50.256;10.978;2023-04-01T23:56:48;3.55;;;1.98;;
26574;SDS011;67165;50.256;10.978;2023-04-01T23:59:17;3.10;;;2.13;;
